sensor_id;sensor_type;location;lat;lon;timestamp;pressure;altitude;pressure_sealevel;temperature;humidity
84483;BME280;74703;51.284;22.590;2024-03-02T00:03:34;99271.34;;;5.07;89.70
84483;BME280;74703;51.284;22.590;2024-03-02T00:08:40;99266.28;;;5.03;89.74
84483;BME280;74703;51.284;22.590;2024-03-02T00:13:43;99263.75;;;5.02;89.58
84483;BME280;74703;51.284;22.590;2024-03-02T00:18:48;99271.00;;;5.19;89.68
84483;BME280;74703;51.284;22.590;2024-03-02T00:23:54;99288.78;;;5.30;89.40
84483;BME280;74703;51.284;22.590;2024-03-02T00:28:57;99250.00;;;5.01;89.78
84483;BME280;74703;51.284;22.590;2024-03-02T00:34:18;99276.06;;;5.22;89.80
84483;BME280;74703;51.284;22.590;2024-03-02T00:39:35;99245.56;;;5.07;89.84
84483;BME280;74703;51.284;22.590;2024-03-02T00:44:44;99245.56;;;5.07;89.89
84483;BME280;74703;51.284;22.590;2024-03-02T00:49:57;99241.91;;;5.14;89.44
84483;BME280;74703;51.284;22.590;2024-03-02T00:55:03;99273.81;;;5.41;89.19
84483;BME280;74703;51.284;22.590;2024-03-02T01:00:09;99247.78;;;5.19;89.61
84483;BME280;74703;51.284;22.590;2024-03-02T01:05:12;99253.59;;;5.27;89.66
84483;BME280;74703;51.284;22.590;2024-03-02T01:10:12;99252.41;;;5.08;90.38
84483;BME280;74703;51.284;22.590;2024-03-02T01:15:13;99252.16;;;5.17;90.27
84483;BME280;74703;51.284;22.590;2024-03-02T01:20:14;99264.69;;;5.29;89.99
84483;BME280;74703;51.284;22.590;2024-03-02T01:25:14;99245.09;;;5.23;90.01
84483;BME280;74703;51.284;22.590;2024-03-02T01:30:15;99236.75;;;5.14;90.12
84483;BME280;74703;51.284;22.590;2024-03-02T01:35:15;99250.91;;;5.30;90.32
84483;BME280;74703;51.284;22.590;2024-03-02T01:40:24;99228.81;;;5.21;90.25
84483;BME280;74703;51.284;22.590;2024-03-02T01:45:35;99216.00;;;5.18;90.10
84483;BME280;74703;51.284;22.590;2024-03-02T01:50:38;99209.41;;;5.08;90.21
84483;BME280;74703;51.284;22.590;2024-03-02T01:55:39;99226.25;;;5.20;90.06
84483;BME280;74703;51.284;22.590;2024-03-02T02:00:42;99206.66;;;5.14;89.99
84483;BME280;74703;51.284;22.590;2024-03-02T02:05:42;99213.53;;;5.15;90.09
84483;BME280;74703;51.284;22.590;2024-03-02T02:10:43;99192.31;;;5.05;90.46
84483;BME280;74703;51.284;22.590;2024-03-02T02:15:44;99189.59;;;5.10;90.36
84483;BME280;74703;51.284;22.590;2024-03-02T02:20:44;99188.94;;;5.03;90.80
84483;BME280;74703;51.284;22.590;2024-03-02T02:25:45;99202.63;;;5.05;90.97
84483;BME280;74703;51.284;22.590;2024-03-02T02:30:45;99204.94;;;5.15;90.84
84483;BME280;74703;51.284;22.590;2024-03-02T02:35:46;99193.25;;;5.03;91.37
84483;BME280;74703;51.284;22.590;2024-03-02T02:40:47;99163.34;;;4.96;90.92
84483;BME280;74703;51.284;22.590;2024-03-02T02:45:55;99172.16;;;4.89;90.75
84483;BME280;74703;51.284;22.590;2024-03-02T02:50:56;99200.81;;;5.09;90.99
84483;BME280;74703;51.284;22.590;2024-03-02T02:55:57;99213.53;;;5.15;90.90
84483;BME280;74703;51.284;22.590;2024-03-02T03:00:57;99197.56;;;5.02;91.56
84483;BME280;74703;51.284;22.590;2024-03-02T03:05:58;99208.53;;;5.09;91.32
84483;BME280;74703;51.284;22.590;2024-03-02T03:10:58;99197.50;;;5.04;91.18
84483;BME280;74703;51.284;22.590;2024-03-02T03:15:59;99195.16;;;4.96;91.38
84483;BME280;74703;51.284;22.590;2024-03-02T03:20:59;99207.78;;;5.05;91.51
84483;BME280;74703;51.284;22.590;2024-03-02T03:26:00;99193.25;;;5.03;91.56
84483;BME280;74703;51.284;22.590;2024-03-02T03:31:01;99169.56;;;4.90;91.69
84483;BME280;74703;51.284;22.590;2024-03-02T03:36:07;99179.25;;;4.82;91.89
84483;BME280;74703;51.284;22.590;2024-03-02T03:41:19;99170.22;;;4.97;92.04
84483;BME280;74703;51.284;22.590;2024-03-02T03:46:29;99165.53;;;4.80;92.39
84483;BME280;74703;51.284;22.590;2024-03-02T03:51:58;99165.94;;;4.96;91.58
84483;BME280;74703;51.284;22.590;2024-03-02T03:57:05;99146.50;;;4.84;91.83
84483;BME280;74703;51.284;22.590;2024-03-02T04:02:22;99146.69;;;4.78;92.31
84483;BME280;74703;51.284;22.590;2024-03-02T04:07:27;99153.31;;;4.87;91.99
84483;BME280;74703;51.284;22.590;2024-03-02T04:12:31;99186.34;;;5.03;91.97
84483;BME280;74703;51.284;22.590;2024-03-02T04:17:34;99147.66;;;4.75;92.59
84483;BME280;74703;51.284;22.590;2024-03-02T04:22:36;99139.03;;;4.75;92.35
84483;BME280;74703;51.284;22.590;2024-03-02T04:27:39;99146.78;;;4.75;92.74
84483;BME280;74703;51.284;22.590;2024-03-02T04:32:42;99171.72;;;5.04;92.46
84483;BME280;74703;51.284;22.590;2024-03-02T04:37:46;99157.50;;;4.91;92.37
84483;BME280;74703;51.284;22.590;2024-03-02T04:42:47;99163.31;;;4.97;92.65
84483;BME280;74703;51.284;22.590;2024-03-02T04:47:47;99156.69;;;4.89;92.86
84483;BME280;74703;51.284;22.590;2024-03-02T04:52:50;99172.09;;;4.92;93.30
84483;BME280;74703;51.284;22.590;2024-03-02T04:57:51;99156.41;;;4.99;92.53
84483;BME280;74703;51.284;22.590;2024-03-02T05:02:54;99153.28;;;4.88;92.91
84483;BME280;74703;51.284;22.590;2024-03-02T05:07:55;99177.63;;;5.08;92.83
84483;BME280;74703;51.284;22.590;2024-03-02T05:12:56;99178.88;;;4.94;92.90
84483;BME280;74703;51.284;22.590;2024-03-02T05:17:59;99166.22;;;4.87;92.56
84483;BME280;74703;51.284;22.590;2024-03-02T05:23:02;99176.94;;;5.02;92.25
84483;BME280;74703;51.284;22.590;2024-03-02T05:28:03;99177.16;;;4.95;92.95
84483;BME280;74703;51.284;22.590;2024-03-02T05:33:04;99187.94;;;5.08;92.64
84483;BME280;74703;51.284;22.590;2024-03-02T05:38:05;99212.59;;;5.18;92.22
84483;BME280;74703;51.284;22.590;2024-03-02T05:43:05;99198.34;;;5.04;92.66
84483;BME280;74703;51.284;22.590;2024-03-02T05:48:09;99210.09;;;5.15;92.63
84483;BME280;74703;51.284;22.590;2024-03-02T05:53:09;99201.00;;;5.01;92.48
84483;BME280;74703;51.284;22.590;2024-03-02T05:58:10;99224.41;;;4.95;92.89
84483;BME280;74703;51.284;22.590;2024-03-02T06:03:34;99207.28;;;4.93;92.45
84483;BME280;74703;51.284;22.590;2024-03-02T06:08:35;99231.88;;;5.04;92.13
84483;BME280;74703;51.284;22.590;2024-03-02T06:13:36;99203.28;;;4.82;91.63
84483;BME280;74703;51.284;22.590;2024-03-02T06:18:36;99204.19;;;4.81;91.64
84483;BME280;74703;51.284;22.590;2024-03-02T06:23:37;99233.66;;;5.02;91.19
84483;BME280;74703;51.284;22.590;2024-03-02T06:28:38;99226.78;;;5.03;90.98
84483;BME280;74703;51.284;22.590;2024-03-02T06:33:39;99240.25;;;5.13;90.24
84483;BME280;74703;51.284;22.590;2024-03-02T06:38:42;99213.31;;;4.93;89.85
84483;BME280;74703;51.284;22.590;2024-03-02T06:43:43;99215.72;;;4.98;89.84
84483;BME280;74703;51.284;22.590;2024-03-02T06:48:43;99231.75;;;5.09;90.17
84483;BME280;74703;51.284;22.590;2024-03-02T06:53:43;99221.34;;;5.12;89.67
84483;BME280;74703;51.284;22.590;2024-03-02T06:58:44;99235.72;;;5.21;88.99
84483;BME280;74703;51.284;22.590;2024-03-02T07:03:45;99244.56;;;5.12;89.57
84483;BME280;74703;51.284;22.590;2024-03-02T07:08:45;99237.66;;;5.13;89.23
84483;BME280;74703;51.284;22.590;2024-03-02T07:13:47;99259.00;;;5.18;89.17
84483;BME280;74703;51.284;22.590;2024-03-02T07:18:47;99256.06;;;5.30;88.60
84483;BME280;74703;51.284;22.590;2024-03-02T07:23:53;99241.75;;;5.20;88.02
84483;BME280;74703;51.284;22.590;2024-03-02T07:28:53;99253.97;;;5.13;88.18
84483;BME280;74703;51.284;22.590;2024-03-02T07:33:54;99254.28;;;5.32;87.77
84483;BME280;74703;51.284;22.590;2024-03-02T07:38:55;99246.88;;;5.21;87.62
84483;BME280;74703;51.284;22.590;2024-03-02T07:43:55;99255.25;;;5.30;88.03
84483;BME280;74703;51.284;22.590;2024-03-02T07:48:58;99264.56;;;5.34;87.89
84483;BME280;74703;51.284;22.590;2024-03-02T07:53:59;99257.72;;;5.33;87.83
84483;BME280;74703;51.284;22.590;2024-03-02T07:59:00;99251.31;;;5.44;87.62
84483;BME280;74703;51.284;22.590;2024-03-02T08:04:02;99252.38;;;5.39;87.98
84483;BME280;74703;51.284;22.590;2024-03-02T08:09:05;99257.13;;;5.53;87.26
84483;BME280;74703;51.284;22.590;2024-03-02T08:14:10;99244.66;;;5.65;86.37
84483;BME280;74703;51.284;22.590;2024-03-02T08:19:12;99261.72;;;5.71;86.35
84483;BME280;74703;51.284;22.590;2024-03-02T08:24:13;99249.66;;;5.71;86.45
84483;BME280;74703;51.284;22.590;2024-03-02T08:29:13;99251.06;;;5.82;85.81
84483;BME280;74703;51.284;22.590;2024-03-02T08:34:14;99267.22;;;5.87;86.16
84483;BME280;74703;51.284;22.590;2024-03-02T08:39:15;99249.88;;;5.93;85.47
84483;BME280;74703;51.284;22.590;2024-03-02T08:44:17;99249.47;;;6.06;85.16
84483;BME280;74703;51.284;22.590;2024-03-02T08:49:18;99250.84;;;6.16;84.67
84483;BME280;74703;51.284;22.590;2024-03-02T08:55:03;99257.69;;;6.17;84.40
84483;BME280;74703;51.284;22.590;2024-03-02T09:00:17;99231.22;;;6.10;84.07
84483;BME280;74703;51.284;22.590;2024-03-02T09:05:29;99236.19;;;6.16;82.96
84483;BME280;74703;51.284;22.590;2024-03-02T09:10:50;99239.88;;;6.09;83.67
84483;BME280;74703;51.284;22.590;2024-03-02T09:15:51;99257.66;;;6.18;83.78
84483;BME280;74703;51.284;22.590;2024-03-02T09:20:51;99244.00;;;6.15;84.19
84483;BME280;74703;51.284;22.590;2024-03-02T09:25:53;99249.69;;;6.25;83.83
84483;BME280;74703;51.284;22.590;2024-03-02T09:31:02;99235.88;;;6.26;83.56
84483;BME280;74703;51.284;22.590;2024-03-02T09:36:03;99249.91;;;6.43;83.12
84483;BME280;74703;51.284;22.590;2024-03-02T09:41:06;99235.25;;;6.44;83.42
84483;BME280;74703;51.284;22.590;2024-03-02T09:46:10;99237.53;;;6.78;82.68
84483;BME280;74703;51.284;22.590;2024-03-02T09:51:19;99249.09;;;6.92;81.25
84483;BME280;74703;51.284;22.590;2024-03-02T09:56:33;99249.00;;;7.18;80.78
84483;BME280;74703;51.284;22.590;2024-03-02T10:01:37;99239.00;;;7.09;80.72
84483;BME280;74703;51.284;22.590;2024-03-02T10:06:42;99263.00;;;7.36;80.47
84483;BME280;74703;51.284;22.590;2024-03-02T10:11:42;99247.25;;;7.19;80.36
84483;BME280;74703;51.284;22.590;2024-03-02T10:16:44;99229.16;;;7.41;79.62
84483;BME280;74703;51.284;22.590;2024-03-02T10:21:52;99245.00;;;7.33;79.75
84483;BME280;74703;51.284;22.590;2024-03-02T10:26:53;99242.19;;;7.39;79.82
84483;BME280;74703;51.284;22.590;2024-03-02T10:31:54;99257.81;;;7.60;79.38
84483;BME280;74703;51.284;22.590;2024-03-02T10:37:01;99251.03;;;7.55;80.42
84483;BME280;74703;51.284;22.590;2024-03-02T10:42:06;99248.66;;;7.73;78.42
84483;BME280;74703;51.284;22.590;2024-03-02T10:47:08;99258.09;;;7.96;78.01
84483;BME280;74703;51.284;22.590;2024-03-02T10:52:09;99242.06;;;8.08;77.10
84483;BME280;74703;51.284;22.590;2024-03-02T10:57:11;99247.63;;;7.99;77.98
84483;BME280;74703;51.284;22.590;2024-03-02T11:02:13;99238.47;;;7.90;77.81
84483;BME280;74703;51.284;22.590;2024-03-02T11:07:16;99264.16;;;7.95;77.59
84483;BME280;74703;51.284;22.590;2024-03-02T11:12:32;99259.94;;;8.14;78.08
84483;BME280;74703;51.284;22.590;2024-03-02T11:17:39;99251.59;;;8.28;77.07
84483;BME280;74703;51.284;22.590;2024-03-02T11:22:44;99224.16;;;8.22;77.07
84483;BME280;74703;51.284;22.590;2024-03-02T11:33:24;99266.28;;;8.49;76.86
84483;BME280;74703;51.284;22.590;2024-03-02T11:38:36;99237.84;;;8.68;76.29
84483;BME280;74703;51.284;22.590;2024-03-02T11:43:42;99209.22;;;8.70;75.24
84483;BME280;74703;51.284;22.590;2024-03-02T11:48:46;99196.25;;;8.70;75.43
84483;BME280;74703;51.284;22.590;2024-03-02T11:53:47;99216.00;;;8.54;76.32
84483;BME280;74703;51.284;22.590;2024-03-02T11:58:59;99219.94;;;8.42;75.41
84483;BME280;74703;51.284;22.590;2024-03-02T12:04:21;99222.91;;;8.53;75.87
84483;BME280;74703;51.284;22.590;2024-03-02T12:09:28;99202.63;;;8.42;75.58
84483;BME280;74703;51.284;22.590;2024-03-02T12:14:29;99241.00;;;8.75;75.82
84483;BME280;74703;51.284;22.590;2024-03-02T12:19:48;99247.28;;;8.69;74.90
84483;BME280;74703;51.284;22.590;2024-03-02T12:25:23;99238.81;;;8.66;76.47
84483;BME280;74703;51.284;22.590;2024-03-02T12:30:35;99221.72;;;8.41;75.68
84483;BME280;74703;51.284;22.590;2024-03-02T12:35:36;99231.34;;;8.58;75.75
84483;BME280;74703;51.284;22.590;2024-03-02T12:40:36;99233.22;;;8.55;76.14
84483;BME280;74703;51.284;22.590;2024-03-02T12:45:37;99242.50;;;8.40;77.45
84483;BME280;74703;51.284;22.590;2024-03-02T12:50:40;99223.53;;;8.38;76.91
84483;BME280;74703;51.284;22.590;2024-03-02T12:55:41;99236.41;;;8.61;76.21
84483;BME280;74703;51.284;22.590;2024-03-02T13:00:45;99222.63;;;8.59;76.69
84483;BME280;74703;51.284;22.590;2024-03-02T13:05:49;99214.50;;;8.68;76.22
84483;BME280;74703;51.284;22.590;2024-03-02T13:10:50;99218.63;;;8.73;75.33
84483;BME280;74703;51.284;22.590;2024-03-02T13:15:56;99213.19;;;8.58;76.26
84483;BME280;74703;51.284;22.590;2024-03-02T13:20:57;99205.91;;;8.66;75.86
84483;BME280;74703;51.284;22.590;2024-03-02T13:26:05;99204.53;;;8.39;76.61
84483;BME280;74703;51.284;22.590;2024-03-02T13:31:20;99200.09;;;8.61;76.54
84483;BME280;74703;51.284;22.590;2024-03-02T13:36:24;99182.84;;;8.19;77.09
84483;BME280;74703;51.284;22.590;2024-03-02T13:41:30;99188.81;;;8.21;76.99
84483;BME280;74703;51.284;22.590;2024-03-02T13:46:52;99190.66;;;8.40;77.56
84483;BME280;74703;51.284;22.590;2024-03-02T13:52:12;99207.47;;;8.50;77.30
84483;BME280;74703;51.284;22.590;2024-03-02T14:03:51;99182.44;;;8.29;76.78
84483;BME280;74703;51.284;22.590;2024-03-02T14:09:16;99235.38;;;8.45;77.79
84483;BME280;74703;51.284;22.590;2024-03-02T14:14:19;99213.97;;;8.40;77.31
84483;BME280;74703;51.284;22.590;2024-03-02T14:19:24;99203.44;;;8.44;76.89
84483;BME280;74703;51.284;22.590;2024-03-02T14:24:49;99199.84;;;8.26;77.39
84483;BME280;74703;51.284;22.590;2024-03-02T14:30:04;99193.47;;;8.13;77.42
84483;BME280;74703;51.284;22.590;2024-03-02T14:35:33;99209.94;;;8.33;78.09
84483;BME280;74703;51.284;22.590;2024-03-02T14:40:34;99213.06;;;8.41;77.59
84483;BME280;74703;51.284;22.590;2024-03-02T14:45:34;99202.47;;;8.25;78.23
84483;BME280;74703;51.284;22.590;2024-03-02T14:50:35;99218.09;;;8.23;78.67
84483;BME280;74703;51.284;22.590;2024-03-02T14:55:37;99198.47;;;8.18;78.53
84483;BME280;74703;51.284;22.590;2024-03-02T15:00:43;99217.31;;;8.21;79.20
84483;BME280;74703;51.284;22.590;2024-03-02T15:05:48;99193.00;;;8.03;79.03
84483;BME280;74703;51.284;22.590;2024-03-02T15:10:57;99191.00;;;8.10;77.86
84483;BME280;74703;51.284;22.590;2024-03-02T15:16:01;99190.41;;;8.03;78.58
84483;BME280;74703;51.284;22.590;2024-03-02T15:21:12;99204.03;;;8.09;78.53
84483;BME280;74703;51.284;22.590;2024-03-02T15:26:31;99195.25;;;7.91;79.17
84483;BME280;74703;51.284;22.590;2024-03-02T15:31:52;99196.72;;;7.76;79.62
84483;BME280;74703;51.284;22.590;2024-03-02T15:37:07;99213.91;;;7.78;79.62
84483;BME280;74703;51.284;22.590;2024-03-02T15:42:13;99192.63;;;7.70;79.92
84483;BME280;74703;51.284;22.590;2024-03-02T15:47:13;99209.78;;;7.73;79.82
84483;BME280;74703;51.284;22.590;2024-03-02T15:52:14;99197.34;;;7.61;80.12
84483;BME280;74703;51.284;22.590;2024-03-02T15:57:23;99203.22;;;7.64;79.98
84483;BME280;74703;51.284;22.590;2024-03-02T16:02:31;99193.78;;;7.63;80.29
84483;BME280;74703;51.284;22.590;2024-03-02T16:07:43;99194.28;;;7.51;80.63
84483;BME280;74703;51.284;22.590;2024-03-02T16:12:43;99203.16;;;7.44;80.69
84483;BME280;74703;51.284;22.590;2024-03-02T16:17:46;99224.38;;;7.53;80.64
84483;BME280;74703;51.284;22.590;2024-03-02T16:22:51;99212.81;;;7.40;80.93
84483;BME280;74703;51.284;22.590;2024-03-02T16:27:57;99214.56;;;7.40;80.92
84483;BME280;74703;51.284;22.590;2024-03-02T16:33:04;99218.09;;;7.37;81.35
84483;BME280;74703;51.284;22.590;2024-03-02T16:38:10;99208.22;;;7.25;81.49
84483;BME280;74703;51.284;22.590;2024-03-02T16:43:15;99216.28;;;7.17;81.72
84483;BME280;74703;51.284;22.590;2024-03-02T16:48:21;99211.66;;;7.02;82.45
84483;BME280;74703;51.284;22.590;2024-03-02T16:53:30;99208.41;;;6.97;82.97
84483;BME280;74703;51.284;22.590;2024-03-02T16:58:39;99198.94;;;6.96;82.72
84483;BME280;74703;51.284;22.590;2024-03-02T17:03:47;99208.69;;;6.89;83.22
84483;BME280;74703;51.284;22.590;2024-03-02T17:08:53;99220.75;;;6.88;83.78
84483;BME280;74703;51.284;22.590;2024-03-02T17:13:53;99197.13;;;6.74;83.84
84483;BME280;74703;51.284;22.590;2024-03-02T17:18:57;99188.72;;;6.69;83.91
84483;BME280;74703;51.284;22.590;2024-03-02T17:24:03;99187.09;;;6.67;84.13
84483;BME280;74703;51.284;22.590;2024-03-02T17:29:12;99217.56;;;6.82;84.16
84483;BME280;74703;51.284;22.590;2024-03-02T17:34:18;99199.84;;;6.71;83.92
84483;BME280;74703;51.284;22.590;2024-03-02T17:39:31;99184.66;;;6.62;84.11
84483;BME280;74703;51.284;22.590;2024-03-02T17:44:45;99195.63;;;6.69;83.44
84483;BME280;74703;51.284;22.590;2024-03-02T17:49:55;99189.59;;;6.68;83.21
84483;BME280;74703;51.284;22.590;2024-03-02T17:55:07;99181.34;;;6.58;83.58
84483;BME280;74703;51.284;22.590;2024-03-02T18:00:11;99209.31;;;6.72;82.90
84483;BME280;74703;51.284;22.590;2024-03-02T18:05:34;99212.72;;;6.73;82.42
84483;BME280;74703;51.284;22.590;2024-03-02T18:10:40;99196.72;;;6.63;82.21
84483;BME280;74703;51.284;22.590;2024-03-02T18:15:43;99204.25;;;6.69;81.51
84483;BME280;74703;51.284;22.590;2024-03-02T18:20:44;99223.75;;;6.78;81.69
84483;BME280;74703;51.284;22.590;2024-03-02T18:25:45;99220.16;;;6.82;81.09
84483;BME280;74703;51.284;22.590;2024-03-02T18:30:48;99222.78;;;6.80;80.87
84483;BME280;74703;51.284;22.590;2024-03-02T18:35:49;99235.47;;;6.86;81.18
84483;BME280;74703;51.284;22.590;2024-03-02T18:40:50;99227.00;;;6.83;80.71
84483;BME280;74703;51.284;22.590;2024-03-02T18:45:50;99218.63;;;6.76;80.59
84483;BME280;74703;51.284;22.590;2024-03-02T18:50:53;99214.25;;;6.78;80.08
84483;BME280;74703;51.284;22.590;2024-03-02T18:55:53;99235.94;;;6.98;79.73
84483;BME280;74703;51.284;22.590;2024-03-02T19:00:54;99229.13;;;6.95;79.53
84483;BME280;74703;51.284;22.590;2024-03-02T19:05:55;99214.78;;;6.86;79.40
84483;BME280;74703;51.284;22.590;2024-03-02T19:10:55;99225.31;;;6.82;78.96
84483;BME280;74703;51.284;22.590;2024-03-02T19:15:56;99231.94;;;6.89;78.40
84483;BME280;74703;51.284;22.590;2024-03-02T19:20:56;99232.34;;;6.78;78.38
84483;BME280;74703;51.284;22.590;2024-03-02T19:25:57;99245.50;;;6.72;78.51
84483;BME280;74703;51.284;22.590;2024-03-02T19:30:57;99245.72;;;6.66;77.30
84483;BME280;74703;51.284;22.590;2024-03-02T19:35:58;99250.09;;;6.64;77.59
84483;BME280;74703;51.284;22.590;2024-03-02T19:40:59;99241.31;;;6.43;77.40
84483;BME280;74703;51.284;22.590;2024-03-02T19:45:59;99241.31;;;6.43;77.30
84483;BME280;74703;51.284;22.590;2024-03-02T19:51:00;99234.72;;;6.34;77.28
84483;BME280;74703;51.284;22.590;2024-03-02T19:56:01;99226.50;;;6.23;77.41
84483;BME280;74703;51.284;22.590;2024-03-02T20:01:01;99225.00;;;6.16;77.35
84483;BME280;74703;51.284;22.590;2024-03-02T20:06:02;99260.47;;;6.37;76.87
84483;BME280;74703;51.284;22.590;2024-03-02T20:11:03;99244.75;;;6.18;76.74
84483;BME280;74703;51.284;22.590;2024-03-02T20:16:08;99246.06;;;6.30;76.30
84483;BME280;74703;51.284;22.590;2024-03-02T20:21:09;99256.25;;;6.35;76.17
84483;BME280;74703;51.284;22.590;2024-03-02T20:26:09;99260.16;;;6.20;76.45
84483;BME280;74703;51.284;22.590;2024-03-02T20:31:10;99260.16;;;6.20;76.41
84483;BME280;74703;51.284;22.590;2024-03-02T20:36:15;99275.75;;;6.18;76.18
84483;BME280;74703;51.284;22.590;2024-03-02T20:41:19;99272.78;;;6.29;76.14
84483;BME280;74703;51.284;22.590;2024-03-02T20:46:20;99274.38;;;6.08;76.58
84483;BME280;74703;51.284;22.590;2024-03-02T20:51:20;99267.78;;;5.98;77.09
84483;BME280;74703;51.284;22.590;2024-03-02T20:56:21;99251.81;;;5.85;77.53
84483;BME280;74703;51.284;22.590;2024-03-02T21:01:21;99257.78;;;5.87;77.74
84483;BME280;74703;51.284;22.590;2024-03-02T21:06:23;99246.84;;;5.79;77.66
84483;BME280;74703;51.284;22.590;2024-03-02T21:11:23;99253.59;;;5.83;78.09
84483;BME280;74703;51.284;22.590;2024-03-02T21:16:24;99251.06;;;5.82;78.38
84483;BME280;74703;51.284;22.590;2024-03-02T21:21:24;99250.31;;;5.78;78.26
84483;BME280;74703;51.284;22.590;2024-03-02T21:26:25;99244.38;;;5.74;78.18
84483;BME280;74703;51.284;22.590;2024-03-02T21:31:26;99251.81;;;5.85;78.32
84483;BME280;74703;51.284;22.590;2024-03-02T21:36:27;99235.25;;;5.64;78.99
84483;BME280;74703;51.284;22.590;2024-03-02T21:41:28;99255.63;;;5.73;79.09
84483;BME280;74703;51.284;22.590;2024-03-02T21:46:28;99245.63;;;5.63;79.38
84483;BME280;74703;51.284;22.590;2024-03-02T21:51:29;99237.28;;;5.55;79.46
84483;BME280;74703;51.284;22.590;2024-03-02T21:56:30;99248.44;;;5.55;80.17
84483;BME280;74703;51.284;22.590;2024-03-02T22:01:30;99245.97;;;5.50;80.27
84483;BME280;74703;51.284;22.590;2024-03-02T22:06:31;99230.03;;;5.38;80.54
84483;BME280;74703;51.284;22.590;2024-03-02T22:11:32;99228.63;;;5.27;80.64
84483;BME280;74703;51.284;22.590;2024-03-02T22:16:32;99246.53;;;5.32;81.03
84483;BME280;74703;51.284;22.590;2024-03-02T22:21:33;99245.88;;;5.25;81.57
84483;BME280;74703;51.284;22.590;2024-03-02T22:26:34;99246.03;;;5.21;81.89
84483;BME280;74703;51.284;22.590;2024-03-02T22:31:34;99232.34;;;5.17;81.94
84483;BME280;74703;51.284;22.590;2024-03-02T22:36:35;99228.53;;;5.01;82.84
84483;BME280;74703;51.284;22.590;2024-03-02T22:41:36;99230.66;;;5.18;82.65
84483;BME280;74703;51.284;22.590;2024-03-02T22:46:36;99225.56;;;5.15;82.78
84483;BME280;74703;51.284;22.590;2024-03-02T22:51:37;99234.63;;;5.28;83.13
84483;BME280;74703;51.284;22.590;2024-03-02T22:56:39;99234.34;;;5.37;82.85
84483;BME280;74703;51.284;22.590;2024-03-02T23:01:40;99215.47;;;5.37;83.04
84483;BME280;74703;51.284;22.590;2024-03-02T23:06:43;99216.25;;;5.39;82.97
84483;BME280;74703;51.284;22.590;2024-03-02T23:11:44;99220.56;;;5.38;83.29
84483;BME280;74703;51.284;22.590;2024-03-02T23:16:45;99232.50;;;5.42;83.00
84483;BME280;74703;51.284;22.590;2024-03-02T23:21:46;99234.31;;;5.39;83.07
84483;BME280;74703;51.284;22.590;2024-03-02T23:26:47;99223.31;;;5.32;82.79
84483;BME280;74703;51.284;22.590;2024-03-02T23:31:49;99234.72;;;5.53;82.58
84483;BME280;74703;51.284;22.590;2024-03-02T23:36:54;99222.06;;;5.45;82.97
84483;BME280;74703;51.284;22.590;2024-03-02T23:41:55;99231.31;;;5.53;82.74
84483;BME280;74703;51.284;22.590;2024-03-02T23:46:59;99208.38;;;5.43;82.58
84483;BME280;74703;51.284;22.590;2024-03-02T23:52:02;99193.59;;;5.48;82.22
84483;BME280;74703;51.284;22.590;2024-03-02T23:57:08;99201.81;;;5.60;82.47
